<?xml version="1.0" encoding="UTF-8" standalone="no" ?>
<gpx xmlns="http://www.topografix.com/GPX/1/1" xmlns:xsi="http://www.w3.org/2001/XMLSchema-instance" xsi:schemaLocation="http://www.topografix.com/GPX/1/1 http://www.topografix.com/GPX/1/1/gpx.xsd" version="1.1" creator="VisuGPX - https://www.visugpx.com">
  <metadata>
    <name>Banne Les Boutes</name>
    <desc><![CDATA[Petite boucle pleine de surprises dans ce paysage karstique, il faut la faire dans le sens anti-horaire pour finir avec la vue sur les Alpes, le Vercors et le Ventoux.
]]></desc>
  </metadata>
  <trk>
    <name><![CDATA[2015-04-24-01]]></name>
    <trkseg>
      <trkpt lat="44.36647" lon="4.15512">
        <ele>279.1</ele>
        <time>2015-04-24T11:53:01Z</time>
      </trkpt>
      <trkpt lat="44.36664" lon="4.15508">
        <ele>271.7</ele>
        <time>2015-04-24T11:54:18Z</time>
      </trkpt>
      <trkpt lat="44.36677" lon="4.15525">
        <ele>272</ele>
        <time>2015-04-24T11:54:44Z</time>
      </trkpt>
      <trkpt lat="44.36693" lon="4.15531">
        <ele>278</ele>
        <time>2015-04-24T11:55:03Z</time>
      </trkpt>
      <trkpt lat="44.36711" lon="4.1553">
        <ele>287</ele>
        <time>2015-04-24T11:55:21Z</time>
      </trkpt>
      <trkpt lat="44.36729" lon="4.15531">
        <ele>286.7</ele>
        <time>2015-04-24T11:55:40Z</time>
      </trkpt>
      <trkpt lat="44.36746" lon="4.15525">
        <ele>280.3</ele>
        <time>2015-04-24T11:55:59Z</time>
      </trkpt>
      <trkpt lat="44.36763" lon="4.15522">
        <ele>283.3</ele>
        <time>2015-04-24T11:56:13Z</time>
      </trkpt>
      <trkpt lat="44.3678" lon="4.15518">
        <ele>275.7</ele>
        <time>2015-04-24T11:56:33Z</time>
      </trkpt>
      <trkpt lat="44.36798" lon="4.15519">
        <ele>268.7</ele>
        <time>2015-04-24T11:56:50Z</time>
      </trkpt>
      <trkpt lat="44.36814" lon="4.15529">
        <ele>272.3</ele>
        <time>2015-04-24T11:57:07Z</time>
      </trkpt>
      <trkpt lat="44.36823" lon="4.15507">
        <ele>271.7</ele>
        <time>2015-04-24T11:57:24Z</time>
      </trkpt>
      <trkpt lat="44.3683" lon="4.15485">
        <ele>276.7</ele>
        <time>2015-04-24T11:57:42Z</time>
      </trkpt>
      <trkpt lat="44.36826" lon="4.15461">
        <ele>275</ele>
        <time>2015-04-24T11:57:57Z</time>
      </trkpt>
      <trkpt lat="44.36827" lon="4.15437">
        <ele>263.1</ele>
        <time>2015-04-24T11:58:27Z</time>
      </trkpt>
      <trkpt lat="44.36825" lon="4.15413">
        <ele>263.6</ele>
        <time>2015-04-24T11:58:56Z</time>
      </trkpt>
      <trkpt lat="44.36834" lon="4.15392">
        <ele>277.5</ele>
        <time>2015-04-24T11:59:14Z</time>
      </trkpt>
      <trkpt lat="44.36847" lon="4.15409">
        <ele>260.2</ele>
        <time>2015-04-24T11:59:49Z</time>
      </trkpt>
      <trkpt lat="44.36862" lon="4.15422">
        <ele>260.5</ele>
        <time>2015-04-24T12:00:11Z</time>
      </trkpt>
      <trkpt lat="44.36879" lon="4.15431">
        <ele>260</ele>
        <time>2015-04-24T12:00:36Z</time>
      </trkpt>
      <trkpt lat="44.36895" lon="4.15422">
        <ele>270.8</ele>
        <time>2015-04-24T12:01:01Z</time>
      </trkpt>
      <trkpt lat="44.36912" lon="4.15412">
        <ele>266.5</ele>
        <time>2015-04-24T12:01:21Z</time>
      </trkpt>
      <trkpt lat="44.36924" lon="4.15395">
        <ele>258.7</ele>
        <time>2015-04-24T12:02:10Z</time>
      </trkpt>
      <trkpt lat="44.36941" lon="4.15401">
        <ele>258.5</ele>
        <time>2015-04-24T12:02:34Z</time>
      </trkpt>
      <trkpt lat="44.36958" lon="4.15406">
        <ele>257.5</ele>
        <time>2015-04-24T12:02:52Z</time>
      </trkpt>
      <trkpt lat="44.36975" lon="4.1541">
        <ele>253.8</ele>
        <time>2015-04-24T12:03:12Z</time>
      </trkpt>
      <trkpt lat="44.36993" lon="4.15412">
        <ele>252.8</ele>
        <time>2015-04-24T12:03:35Z</time>
      </trkpt>
      <trkpt lat="44.3701" lon="4.15419">
        <ele>268.2</ele>
        <time>2015-04-24T12:03:51Z</time>
      </trkpt>
      <trkpt lat="44.37027" lon="4.15413">
        <ele>257.3</ele>
        <time>2015-04-24T12:04:13Z</time>
      </trkpt>
      <trkpt lat="44.37045" lon="4.15412">
        <ele>259.5</ele>
        <time>2015-04-24T12:04:34Z</time>
      </trkpt>
      <trkpt lat="44.37062" lon="4.15413">
        <ele>256.6</ele>
        <time>2015-04-24T12:04:57Z</time>
      </trkpt>
      <trkpt lat="44.37079" lon="4.15408">
        <ele>250.8</ele>
        <time>2015-04-24T12:05:20Z</time>
      </trkpt>
      <trkpt lat="44.37095" lon="4.15399">
        <ele>246.1</ele>
        <time>2015-04-24T12:05:42Z</time>
      </trkpt>
      <trkpt lat="44.37112" lon="4.15393">
        <ele>251.5</ele>
        <time>2015-04-24T12:06:01Z</time>
      </trkpt>
      <trkpt lat="44.37129" lon="4.15394">
        <ele>260.7</ele>
        <time>2015-04-24T12:06:24Z</time>
      </trkpt>
      <trkpt lat="44.37147" lon="4.15398">
        <ele>249.5</ele>
        <time>2015-04-24T12:07:02Z</time>
      </trkpt>
      <trkpt lat="44.37165" lon="4.15401">
        <ele>255.5</ele>
        <time>2015-04-24T12:07:21Z</time>
      </trkpt>
      <trkpt lat="44.37181" lon="4.154">
        <ele>253.8</ele>
        <time>2015-04-24T12:07:48Z</time>
      </trkpt>
      <trkpt lat="44.37195" lon="4.15387">
        <ele>263.5</ele>
        <time>2015-04-24T12:08:18Z</time>
      </trkpt>
      <trkpt lat="44.37209" lon="4.15372">
        <ele>257.8</ele>
        <time>2015-04-24T12:08:46Z</time>
      </trkpt>
      <trkpt lat="44.37222" lon="4.15355">
        <ele>249.1</ele>
        <time>2015-04-24T12:09:14Z</time>
      </trkpt>
      <trkpt lat="44.37236" lon="4.15341">
        <ele>252.6</ele>
        <time>2015-04-24T12:09:35Z</time>
      </trkpt>
      <trkpt lat="44.37243" lon="4.15318">
        <ele>254.5</ele>
        <time>2015-04-24T12:10:01Z</time>
      </trkpt>
      <trkpt lat="44.37249" lon="4.15294">
        <ele>247.8</ele>
        <time>2015-04-24T12:10:24Z</time>
      </trkpt>
      <trkpt lat="44.3726" lon="4.15276">
        <ele>255.8</ele>
        <time>2015-04-24T12:10:44Z</time>
      </trkpt>
      <trkpt lat="44.37277" lon="4.15268">
        <ele>253</ele>
        <time>2015-04-24T12:11:14Z</time>
      </trkpt>
      <trkpt lat="44.37275" lon="4.15244">
        <ele>253.6</ele>
        <time>2015-04-24T12:11:55Z</time>
      </trkpt>
      <trkpt lat="44.37282" lon="4.15221">
        <ele>255.3</ele>
        <time>2015-04-24T12:12:24Z</time>
      </trkpt>
      <trkpt lat="44.37296" lon="4.15206">
        <ele>254.1</ele>
        <time>2015-04-24T12:12:51Z</time>
      </trkpt>
      <trkpt lat="44.37307" lon="4.15187">
        <ele>250.1</ele>
        <time>2015-04-24T12:13:17Z</time>
      </trkpt>
      <trkpt lat="44.37323" lon="4.15177">
        <ele>253</ele>
        <time>2015-04-24T12:13:36Z</time>
      </trkpt>
      <trkpt lat="44.37338" lon="4.15164">
        <ele>250.8</ele>
        <time>2015-04-24T12:14:00Z</time>
      </trkpt>
      <trkpt lat="44.37351" lon="4.15147">
        <ele>251.5</ele>
        <time>2015-04-24T12:14:59Z</time>
      </trkpt>
      <trkpt lat="44.37367" lon="4.15138">
        <ele>250</ele>
        <time>2015-04-24T12:15:32Z</time>
      </trkpt>
      <trkpt lat="44.37382" lon="4.15125">
        <ele>251.6</ele>
        <time>2015-04-24T12:15:54Z</time>
      </trkpt>
      <trkpt lat="44.37398" lon="4.15118">
        <ele>251.6</ele>
        <time>2015-04-24T12:16:22Z</time>
      </trkpt>
      <trkpt lat="44.37416" lon="4.15119">
        <ele>248.5</ele>
        <time>2015-04-24T12:16:56Z</time>
      </trkpt>
      <trkpt lat="44.37433" lon="4.15114">
        <ele>250.3</ele>
        <time>2015-04-24T12:17:25Z</time>
      </trkpt>
      <trkpt lat="44.37451" lon="4.15119">
        <ele>251.8</ele>
        <time>2015-04-24T12:17:50Z</time>
      </trkpt>
      <trkpt lat="44.37463" lon="4.15101">
        <ele>250.8</ele>
        <time>2015-04-24T12:18:18Z</time>
      </trkpt>
      <trkpt lat="44.37475" lon="4.15082">
        <ele>267.1</ele>
        <time>2015-04-24T12:18:47Z</time>
      </trkpt>
      <trkpt lat="44.37482" lon="4.1506">
        <ele>267.1</ele>
        <time>2015-04-24T12:19:22Z</time>
      </trkpt>
      <trkpt lat="44.37494" lon="4.15041">
        <ele>276</ele>
        <time>2015-04-24T12:20:08Z</time>
      </trkpt>
      <trkpt lat="44.37492" lon="4.15017">
        <ele>267.8</ele>
        <time>2015-04-24T12:20:52Z</time>
      </trkpt>
      <trkpt lat="44.37506" lon="4.15001">
        <ele>277.6</ele>
        <time>2015-04-24T12:21:28Z</time>
      </trkpt>
      <trkpt lat="44.37515" lon="4.1498">
        <ele>281.7</ele>
        <time>2015-04-24T12:22:00Z</time>
      </trkpt>
      <trkpt lat="44.37507" lon="4.14958">
        <ele>281.7</ele>
        <time>2015-04-24T12:23:55Z</time>
      </trkpt>
      <trkpt lat="44.37523" lon="4.14968">
        <ele>308.3</ele>
        <time>2015-04-24T12:26:08Z</time>
      </trkpt>
      <trkpt lat="44.37518" lon="4.14945">
        <ele>269.2</ele>
        <time>2015-04-24T12:30:54Z</time>
      </trkpt>
      <trkpt lat="44.37531" lon="4.14928">
        <ele>283.7</ele>
        <time>2015-04-24T12:31:15Z</time>
      </trkpt>
      <trkpt lat="44.37537" lon="4.14904">
        <ele>286.7</ele>
        <time>2015-04-24T12:32:09Z</time>
      </trkpt>
      <trkpt lat="44.37551" lon="4.14889">
        <ele>296</ele>
        <time>2015-04-24T12:32:33Z</time>
      </trkpt>
      <trkpt lat="44.37557" lon="4.14866">
        <ele>293.1</ele>
        <time>2015-04-24T12:32:58Z</time>
      </trkpt>
      <trkpt lat="44.37563" lon="4.14843">
        <ele>286.3</ele>
        <time>2015-04-24T12:33:29Z</time>
      </trkpt>
      <trkpt lat="44.37573" lon="4.14823">
        <ele>290</ele>
        <time>2015-04-24T12:33:51Z</time>
      </trkpt>
      <trkpt lat="44.37578" lon="4.148">
        <ele>290.7</ele>
        <time>2015-04-24T12:34:15Z</time>
      </trkpt>
      <trkpt lat="44.37577" lon="4.14775">
        <ele>291.5</ele>
        <time>2015-04-24T12:34:45Z</time>
      </trkpt>
      <trkpt lat="44.37575" lon="4.14751">
        <ele>288.3</ele>
        <time>2015-04-24T12:35:16Z</time>
      </trkpt>
      <trkpt lat="44.3758" lon="4.14727">
        <ele>281.8</ele>
        <time>2015-04-24T12:35:54Z</time>
      </trkpt>
      <trkpt lat="44.37578" lon="4.14703">
        <ele>275.8</ele>
        <time>2015-04-24T12:36:32Z</time>
      </trkpt>
      <trkpt lat="44.37568" lon="4.14683">
        <ele>273.2</ele>
        <time>2015-04-24T12:37:07Z</time>
      </trkpt>
      <trkpt lat="44.37573" lon="4.14659">
        <ele>268</ele>
        <time>2015-04-24T12:40:56Z</time>
      </trkpt>
      <trkpt lat="44.37559" lon="4.14646">
        <ele>265.5</ele>
        <time>2015-04-24T12:41:30Z</time>
      </trkpt>
      <trkpt lat="44.37545" lon="4.1463">
        <ele>271</ele>
        <time>2015-04-24T12:41:59Z</time>
      </trkpt>
      <trkpt lat="44.37529" lon="4.1462">
        <ele>276.7</ele>
        <time>2015-04-24T12:42:21Z</time>
      </trkpt>
      <trkpt lat="44.37512" lon="4.14616">
        <ele>280.3</ele>
        <time>2015-04-24T12:42:55Z</time>
      </trkpt>
      <trkpt lat="44.37496" lon="4.14605">
        <ele>286.8</ele>
        <time>2015-04-24T12:43:29Z</time>
      </trkpt>
      <trkpt lat="44.3748" lon="4.14595">
        <ele>286.2</ele>
        <time>2015-04-24T12:44:07Z</time>
      </trkpt>
      <trkpt lat="44.37462" lon="4.14592">
        <ele>288.7</ele>
        <time>2015-04-24T12:44:46Z</time>
      </trkpt>
      <trkpt lat="44.37447" lon="4.14582">
        <ele>293.7</ele>
        <time>2015-04-24T12:45:21Z</time>
      </trkpt>
      <trkpt lat="44.37429" lon="4.1458">
        <ele>298</ele>
        <time>2015-04-24T12:46:00Z</time>
      </trkpt>
      <trkpt lat="44.37412" lon="4.14578">
        <ele>295.1</ele>
        <time>2015-04-24T12:46:37Z</time>
      </trkpt>
      <trkpt lat="44.37395" lon="4.14572">
        <ele>294.2</ele>
        <time>2015-04-24T12:47:04Z</time>
      </trkpt>
      <trkpt lat="44.37378" lon="4.14567">
        <ele>295.7</ele>
        <time>2015-04-24T12:47:31Z</time>
      </trkpt>
      <trkpt lat="44.37361" lon="4.14562">
        <ele>296.5</ele>
        <time>2015-04-24T12:47:56Z</time>
      </trkpt>
      <trkpt lat="44.37345" lon="4.14553">
        <ele>294.2</ele>
        <time>2015-04-24T12:48:24Z</time>
      </trkpt>
      <trkpt lat="44.37327" lon="4.14551">
        <ele>298.7</ele>
        <time>2015-04-24T12:49:05Z</time>
      </trkpt>
      <trkpt lat="44.3731" lon="4.14554">
        <ele>300.2</ele>
        <time>2015-04-24T12:49:28Z</time>
      </trkpt>
      <trkpt lat="44.37294" lon="4.14542">
        <ele>303.5</ele>
        <time>2015-04-24T12:50:52Z</time>
      </trkpt>
      <trkpt lat="44.37284" lon="4.14562">
        <ele>299.2</ele>
        <time>2015-04-24T12:51:36Z</time>
      </trkpt>
      <trkpt lat="44.37271" lon="4.14581">
        <ele>304.3</ele>
        <time>2015-04-24T12:52:18Z</time>
      </trkpt>
      <trkpt lat="44.37256" lon="4.14593">
        <ele>300.7</ele>
        <time>2015-04-24T12:52:50Z</time>
      </trkpt>
      <trkpt lat="44.37242" lon="4.14608">
        <ele>301.6</ele>
        <time>2015-04-24T12:53:19Z</time>
      </trkpt>
      <trkpt lat="44.37238" lon="4.14632">
        <ele>307.7</ele>
        <time>2015-04-24T13:01:43Z</time>
      </trkpt>
      <trkpt lat="44.37236" lon="4.14657">
        <ele>313.6</ele>
        <time>2015-04-24T13:02:18Z</time>
      </trkpt>
      <trkpt lat="44.37236" lon="4.14682">
        <ele>320.5</ele>
        <time>2015-04-24T13:03:05Z</time>
      </trkpt>
      <trkpt lat="44.3724" lon="4.14706">
        <ele>319.7</ele>
        <time>2015-04-24T13:03:37Z</time>
      </trkpt>
      <trkpt lat="44.3724" lon="4.1473">
        <ele>318.5</ele>
        <time>2015-04-24T13:04:19Z</time>
      </trkpt>
      <trkpt lat="44.37245" lon="4.14754">
        <ele>326.6</ele>
        <time>2015-04-24T13:04:48Z</time>
      </trkpt>
      <trkpt lat="44.37242" lon="4.14778">
        <ele>320.2</ele>
        <time>2015-04-24T13:05:22Z</time>
      </trkpt>
      <trkpt lat="44.37243" lon="4.14803">
        <ele>318.3</ele>
        <time>2015-04-24T13:06:09Z</time>
      </trkpt>
      <trkpt lat="44.3725" lon="4.14826">
        <ele>314.8</ele>
        <time>2015-04-24T13:06:36Z</time>
      </trkpt>
      <trkpt lat="44.37248" lon="4.14851">
        <ele>310.8</ele>
        <time>2015-04-24T13:07:05Z</time>
      </trkpt>
      <trkpt lat="44.37245" lon="4.14875">
        <ele>307.3</ele>
        <time>2015-04-24T13:07:35Z</time>
      </trkpt>
      <trkpt lat="44.37242" lon="4.14899">
        <ele>311.2</ele>
        <time>2015-04-24T13:07:57Z</time>
      </trkpt>
      <trkpt lat="44.37239" lon="4.14924">
        <ele>308.6</ele>
        <time>2015-04-24T13:08:26Z</time>
      </trkpt>
      <trkpt lat="44.37234" lon="4.14948">
        <ele>304.8</ele>
        <time>2015-04-24T13:09:01Z</time>
      </trkpt>
      <trkpt lat="44.37234" lon="4.14972">
        <ele>304.8</ele>
        <time>2015-04-24T13:09:37Z</time>
      </trkpt>
      <trkpt lat="44.37232" lon="4.14997">
        <ele>297.7</ele>
        <time>2015-04-24T13:10:12Z</time>
      </trkpt>
      <trkpt lat="44.37232" lon="4.15022">
        <ele>296</ele>
        <time>2015-04-24T13:11:02Z</time>
      </trkpt>
      <trkpt lat="44.3722" lon="4.15041">
        <ele>278.3</ele>
        <time>2015-04-24T13:11:35Z</time>
      </trkpt>
      <trkpt lat="44.37217" lon="4.15065">
        <ele>288.3</ele>
        <time>2015-04-24T13:11:59Z</time>
      </trkpt>
      <trkpt lat="44.37213" lon="4.15089">
        <ele>287.6</ele>
        <time>2015-04-24T13:12:35Z</time>
      </trkpt>
      <trkpt lat="44.3721" lon="4.15114">
        <ele>289.5</ele>
        <time>2015-04-24T13:13:02Z</time>
      </trkpt>
      <trkpt lat="44.37209" lon="4.15139">
        <ele>293.2</ele>
        <time>2015-04-24T13:13:35Z</time>
      </trkpt>
      <trkpt lat="44.37209" lon="4.15163">
        <ele>278.1</ele>
        <time>2015-04-24T13:14:18Z</time>
      </trkpt>
      <trkpt lat="44.37208" lon="4.15188">
        <ele>273.1</ele>
        <time>2015-04-24T13:14:50Z</time>
      </trkpt>
      <trkpt lat="44.37202" lon="4.15212">
        <ele>267</ele>
        <time>2015-04-24T13:20:20Z</time>
      </trkpt>
      <trkpt lat="44.37195" lon="4.15234">
        <ele>258</ele>
        <time>2015-04-24T13:20:48Z</time>
      </trkpt>
      <trkpt lat="44.37184" lon="4.15254">
        <ele>255.8</ele>
        <time>2015-04-24T13:21:12Z</time>
      </trkpt>
      <trkpt lat="44.37171" lon="4.15271">
        <ele>257.7</ele>
        <time>2015-04-24T13:21:36Z</time>
      </trkpt>
      <trkpt lat="44.37159" lon="4.15289">
        <ele>268</ele>
        <time>2015-04-24T13:21:58Z</time>
      </trkpt>
      <trkpt lat="44.37145" lon="4.15305">
        <ele>277.7</ele>
        <time>2015-04-24T13:22:19Z</time>
      </trkpt>
      <trkpt lat="44.37131" lon="4.15319">
        <ele>279.7</ele>
        <time>2015-04-24T13:22:43Z</time>
      </trkpt>
      <trkpt lat="44.37118" lon="4.15336">
        <ele>271.5</ele>
        <time>2015-04-24T13:23:42Z</time>
      </trkpt>
      <trkpt lat="44.37104" lon="4.15352">
        <ele>283.8</ele>
        <time>2015-04-24T13:24:19Z</time>
      </trkpt>
      <trkpt lat="44.37087" lon="4.15355">
        <ele>269</ele>
        <time>2015-04-24T13:24:52Z</time>
      </trkpt>
      <trkpt lat="44.37071" lon="4.15366">
        <ele>260.2</ele>
        <time>2015-04-24T13:26:04Z</time>
      </trkpt>
      <trkpt lat="44.37056" lon="4.15379">
        <ele>258.3</ele>
        <time>2015-04-24T13:26:45Z</time>
      </trkpt>
      <trkpt lat="44.37039" lon="4.15384">
        <ele>248.1</ele>
        <time>2015-04-24T13:27:43Z</time>
      </trkpt>
      <trkpt lat="44.37023" lon="4.15393">
        <ele>251.1</ele>
        <time>2015-04-24T13:28:46Z</time>
      </trkpt>
      <trkpt lat="44.37006" lon="4.15395">
        <ele>258.2</ele>
        <time>2015-04-24T13:29:09Z</time>
      </trkpt>
      <trkpt lat="44.3699" lon="4.15384">
        <ele>256</ele>
        <time>2015-04-24T13:29:28Z</time>
      </trkpt>
      <trkpt lat="44.36972" lon="4.15383">
        <ele>255.6</ele>
        <time>2015-04-24T13:29:50Z</time>
      </trkpt>
      <trkpt lat="44.36956" lon="4.15386">
        <ele>261.3</ele>
        <time>2015-04-24T13:30:09Z</time>
      </trkpt>
      <trkpt lat="44.36938" lon="4.15383">
        <ele>261.1</ele>
        <time>2015-04-24T13:30:30Z</time>
      </trkpt>
      <trkpt lat="44.36921" lon="4.15375">
        <ele>258.2</ele>
        <time>2015-04-24T13:30:53Z</time>
      </trkpt>
      <trkpt lat="44.36904" lon="4.15375">
        <ele>263.7</ele>
        <time>2015-04-24T13:31:22Z</time>
      </trkpt>
      <trkpt lat="44.36887" lon="4.15367">
        <ele>264.7</ele>
        <time>2015-04-24T13:31:42Z</time>
      </trkpt>
      <trkpt lat="44.36874" lon="4.1535">
        <ele>260.6</ele>
        <time>2015-04-24T13:32:01Z</time>
      </trkpt>
      <trkpt lat="44.36861" lon="4.15334">
        <ele>264.3</ele>
        <time>2015-04-24T13:32:20Z</time>
      </trkpt>
      <trkpt lat="44.36848" lon="4.15318">
        <ele>265.8</ele>
        <time>2015-04-24T13:34:22Z</time>
      </trkpt>
      <trkpt lat="44.36836" lon="4.153">
        <ele>265</ele>
        <time>2015-04-24T13:34:48Z</time>
      </trkpt>
      <trkpt lat="44.36828" lon="4.15278">
        <ele>264.6</ele>
        <time>2015-04-24T13:35:11Z</time>
      </trkpt>
      <trkpt lat="44.36812" lon="4.15268">
        <ele>263.6</ele>
        <time>2015-04-24T13:38:06Z</time>
      </trkpt>
      <trkpt lat="44.36794" lon="4.15269">
        <ele>264.3</ele>
        <time>2015-04-24T13:38:26Z</time>
      </trkpt>
      <trkpt lat="44.36779" lon="4.15279">
        <ele>266</ele>
        <time>2015-04-24T13:38:48Z</time>
      </trkpt>
      <trkpt lat="44.36771" lon="4.15301">
        <ele>269.7</ele>
        <time>2015-04-24T13:39:10Z</time>
      </trkpt>
      <trkpt lat="44.36772" lon="4.15326">
        <ele>271.7</ele>
        <time>2015-04-24T13:39:32Z</time>
      </trkpt>
      <trkpt lat="44.36776" lon="4.15349">
        <ele>268.3</ele>
        <time>2015-04-24T13:39:53Z</time>
      </trkpt>
      <trkpt lat="44.36782" lon="4.15372">
        <ele>270.3</ele>
        <time>2015-04-24T13:40:13Z</time>
      </trkpt>
      <trkpt lat="44.3679" lon="4.15394">
        <ele>271.5</ele>
        <time>2015-04-24T13:40:41Z</time>
      </trkpt>
      <trkpt lat="44.36782" lon="4.15416">
        <ele>279.1</ele>
        <time>2015-04-24T13:41:27Z</time>
      </trkpt>
      <trkpt lat="44.36766" lon="4.15407">
        <ele>280.7</ele>
        <time>2015-04-24T13:42:01Z</time>
      </trkpt>
      <trkpt lat="44.36755" lon="4.15387">
        <ele>282.2</ele>
        <time>2015-04-24T13:42:40Z</time>
      </trkpt>
      <trkpt lat="44.36743" lon="4.15368">
        <ele>280.5</ele>
        <time>2015-04-24T13:43:08Z</time>
      </trkpt>
      <trkpt lat="44.36729" lon="4.15352">
        <ele>284.3</ele>
        <time>2015-04-24T13:43:32Z</time>
      </trkpt>
      <trkpt lat="44.36712" lon="4.15347">
        <ele>285.1</ele>
        <time>2015-04-24T13:44:00Z</time>
      </trkpt>
      <trkpt lat="44.36695" lon="4.15339">
        <ele>292.3</ele>
        <time>2015-04-24T13:44:27Z</time>
      </trkpt>
      <trkpt lat="44.36678" lon="4.15347">
        <ele>295.6</ele>
        <time>2015-04-24T13:46:19Z</time>
      </trkpt>
      <trkpt lat="44.36661" lon="4.1535">
        <ele>297.2</ele>
        <time>2015-04-24T13:46:48Z</time>
      </trkpt>
      <trkpt lat="44.36648" lon="4.15333">
        <ele>295.7</ele>
        <time>2015-04-24T13:49:02Z</time>
      </trkpt>
      <trkpt lat="44.36641" lon="4.1531">
        <ele>296.7</ele>
        <time>2015-04-24T13:49:32Z</time>
      </trkpt>
      <trkpt lat="44.36632" lon="4.15288">
        <ele>305.7</ele>
        <time>2015-04-24T13:49:58Z</time>
      </trkpt>
      <trkpt lat="44.3662" lon="4.15269">
        <ele>314.5</ele>
        <time>2015-04-24T13:50:23Z</time>
      </trkpt>
      <trkpt lat="44.36604" lon="4.15262">
        <ele>318.7</ele>
        <time>2015-04-24T13:53:59Z</time>
      </trkpt>
      <trkpt lat="44.36588" lon="4.15251">
        <ele>325.7</ele>
        <time>2015-04-24T13:54:36Z</time>
      </trkpt>
      <trkpt lat="44.3657" lon="4.15253">
        <ele>329.2</ele>
        <time>2015-04-24T13:56:07Z</time>
      </trkpt>
      <trkpt lat="44.36553" lon="4.15246">
        <ele>335.2</ele>
        <time>2015-04-24T13:56:35Z</time>
      </trkpt>
      <trkpt lat="44.36535" lon="4.15246">
        <ele>342.3</ele>
        <time>2015-04-24T13:57:16Z</time>
      </trkpt>
      <trkpt lat="44.36518" lon="4.15241">
        <ele>338.8</ele>
        <time>2015-04-24T13:58:02Z</time>
      </trkpt>
      <trkpt lat="44.36503" lon="4.15227">
        <ele>347.1</ele>
        <time>2015-04-24T13:58:25Z</time>
      </trkpt>
      <trkpt lat="44.36486" lon="4.15224">
        <ele>348.7</ele>
        <time>2015-04-24T13:58:50Z</time>
      </trkpt>
      <trkpt lat="44.36468" lon="4.15228">
        <ele>351.8</ele>
        <time>2015-04-24T13:59:17Z</time>
      </trkpt>
      <trkpt lat="44.36453" lon="4.15216">
        <ele>352</ele>
        <time>2015-04-24T13:59:38Z</time>
      </trkpt>
      <trkpt lat="44.36436" lon="4.15207">
        <ele>352.1</ele>
        <time>2015-04-24T14:00:03Z</time>
      </trkpt>
      <trkpt lat="44.36423" lon="4.15189">
        <ele>351.7</ele>
        <time>2015-04-24T14:00:42Z</time>
      </trkpt>
      <trkpt lat="44.36429" lon="4.15213">
        <ele>368.7</ele>
        <time>2015-04-24T14:05:48Z</time>
      </trkpt>
      <trkpt lat="44.36412" lon="4.15217">
        <ele>346.3</ele>
        <time>2015-04-24T14:06:38Z</time>
      </trkpt>
      <trkpt lat="44.36398" lon="4.15231">
        <ele>352</ele>
        <time>2015-04-24T14:07:16Z</time>
      </trkpt>
      <trkpt lat="44.36394" lon="4.15255">
        <ele>349.7</ele>
        <time>2015-04-24T14:07:39Z</time>
      </trkpt>
      <trkpt lat="44.3639" lon="4.15278">
        <ele>344.8</ele>
        <time>2015-04-24T14:08:05Z</time>
      </trkpt>
      <trkpt lat="44.36387" lon="4.15302">
        <ele>341.7</ele>
        <time>2015-04-24T14:08:25Z</time>
      </trkpt>
      <trkpt lat="44.36377" lon="4.15322">
        <ele>341.1</ele>
        <time>2015-04-24T14:08:53Z</time>
      </trkpt>
      <trkpt lat="44.36361" lon="4.15332">
        <ele>333</ele>
        <time>2015-04-24T14:09:19Z</time>
      </trkpt>
      <trkpt lat="44.36345" lon="4.15342">
        <ele>332.7</ele>
        <time>2015-04-24T14:09:45Z</time>
      </trkpt>
      <trkpt lat="44.36327" lon="4.15344">
        <ele>330.7</ele>
        <time>2015-04-24T14:10:12Z</time>
      </trkpt>
      <trkpt lat="44.3634" lon="4.15361">
        <ele>330.1</ele>
        <time>2015-04-24T14:11:06Z</time>
      </trkpt>
      <trkpt lat="44.36351" lon="4.15379">
        <ele>330.7</ele>
        <time>2015-04-24T14:11:41Z</time>
      </trkpt>
      <trkpt lat="44.36368" lon="4.15383">
        <ele>330.2</ele>
        <time>2015-04-24T14:12:08Z</time>
      </trkpt>
      <trkpt lat="44.36386" lon="4.15383">
        <ele>325.2</ele>
        <time>2015-04-24T14:12:40Z</time>
      </trkpt>
      <trkpt lat="44.36403" lon="4.15384">
        <ele>325.2</ele>
        <time>2015-04-24T14:13:06Z</time>
      </trkpt>
      <trkpt lat="44.3642" lon="4.15377">
        <ele>317</ele>
        <time>2015-04-24T14:13:39Z</time>
      </trkpt>
      <trkpt lat="44.36435" lon="4.15363">
        <ele>322.5</ele>
        <time>2015-04-24T14:14:00Z</time>
      </trkpt>
      <trkpt lat="44.3644" lon="4.15386">
        <ele>319.7</ele>
        <time>2015-04-24T14:14:48Z</time>
      </trkpt>
      <trkpt lat="44.36451" lon="4.15405">
        <ele>306.2</ele>
        <time>2015-04-24T14:15:30Z</time>
      </trkpt>
      <trkpt lat="44.36464" lon="4.15421">
        <ele>301.3</ele>
        <time>2015-04-24T14:15:54Z</time>
      </trkpt>
      <trkpt lat="44.36479" lon="4.15434">
        <ele>293.8</ele>
        <time>2015-04-24T14:16:21Z</time>
      </trkpt>
      <trkpt lat="44.36495" lon="4.15444">
        <ele>293.5</ele>
        <time>2015-04-24T14:16:47Z</time>
      </trkpt>
      <trkpt lat="44.3651" lon="4.15456">
        <ele>292.1</ele>
        <time>2015-04-24T14:17:12Z</time>
      </trkpt>
      <trkpt lat="44.36522" lon="4.15474">
        <ele>290.7</ele>
        <time>2015-04-24T14:17:39Z</time>
      </trkpt>
      <trkpt lat="44.36527" lon="4.15498">
        <ele>290.5</ele>
        <time>2015-04-24T14:18:05Z</time>
      </trkpt>
      <trkpt lat="44.36529" lon="4.15522">
        <ele>291.5</ele>
        <time>2015-04-24T14:18:31Z</time>
      </trkpt>
      <trkpt lat="44.36537" lon="4.15543">
        <ele>288.2</ele>
        <time>2015-04-24T14:18:46Z</time>
      </trkpt>
      <trkpt lat="44.36531" lon="4.15567">
        <ele>289.7</ele>
        <time>2015-04-24T14:19:19Z</time>
      </trkpt>
      <trkpt lat="44.3654" lon="4.15589">
        <ele>279.1</ele>
        <time>2015-04-24T14:19:38Z</time>
      </trkpt>
      <trkpt lat="44.36527" lon="4.15606">
        <ele>291.2</ele>
        <time>2015-04-24T14:20:15Z</time>
      </trkpt>
      <trkpt lat="44.36544" lon="4.15607">
        <ele>299.2</ele>
        <time>2015-04-24T14:26:49Z</time>
      </trkpt>
      <trkpt lat="44.3656" lon="4.15597">
        <ele>298</ele>
        <time>2015-04-24T14:27:01Z</time>
      </trkpt>
      <trkpt lat="44.36575" lon="4.15584">
        <ele>296.6</ele>
        <time>2015-04-24T14:27:19Z</time>
      </trkpt>
      <trkpt lat="44.36585" lon="4.15564">
        <ele>291.7</ele>
        <time>2015-04-24T14:27:39Z</time>
      </trkpt>
      <trkpt lat="44.36597" lon="4.15545">
        <ele>287.1</ele>
        <time>2015-04-24T14:28:12Z</time>
      </trkpt>
      <trkpt lat="44.36614" lon="4.1554">
        <ele>285.2</ele>
        <time>2015-04-24T14:28:39Z</time>
      </trkpt>
      <trkpt lat="44.36628" lon="4.15534">
        <ele>284.1</ele>
        <time>2015-04-24T14:29:05Z</time>
      </trkpt>
    </trkseg>
  </trk>
</gpx>